sensor_id;sensor_type;location;lat;lon;timestamp;P1;durP1;ratioP1;P2;durP2;ratioP2
2650;SDS011;1335;48.180;16.342;2023-12-29T00:00:09;19.80;;;15.37;;
2650;SDS011;1335;48.180;16.342;2023-12-29T00:02:36;17.70;;;14.73;;
2650;SDS011;1335;48.180;16.342;2023-12-29T00:05:04;16.40;;;14.40;;
2650;SDS011;1335;48.180;16.342;2023-12-29T00:07:31;17.47;;;14.60;;
2650;SDS011;1335;48.180;16.342;2023-12-29T00:10:00;16.83;;;14.20;;
2650;SDS011;1335;48.180;16.342;2023-12-29T00:12:27;18.67;;;13.97;;
2650;SDS011;1335;48.180;16.342;2023-12-29T00:14:55;16.83;;;14.13;;
2650;SDS011;1335;48.180;16.342;2023-12-29T00:17:22;19.58;;;15.23;;
2650;SDS011;1335;48.180;16.342;2023-12-29T00:19:49;18.00;;;14.97;;
2650;SDS011;1335;48.180;16.342;2023-12-29T00:22:18;18.70;;;15.03;;
2650;SDS011;1335;48.180;16.342;2023-12-29T00:24:46;15.40;;;13.40;;
2650;SDS011;1335;48.180;16.342;2023-12-29T00:27:15;20.63;;;15.30;;
2650;SDS011;1335;48.180;16.342;2023-12-29T00:29:42;23.87;;;15.83;;
2650;SDS011;1335;48.180;16.342;2023-12-29T00:32:10;21.20;;;15.30;;
2650;SDS011;1335;48.180;16.342;2023-12-29T00:34:37;21.40;;;15.90;;
2650;SDS011;1335;48.180;16.342;2023-12-29T00:37:04;19.33;;;15.90;;
2650;SDS011;1335;48.180;16.342;2023-12-29T00:39:33;20.23;;;15.70;;
2650;SDS011;1335;48.180;16.342;2023-12-29T00:42:03;18.80;;;14.60;;
2650;SDS011;1335;48.180;16.342;2023-12-29T00:44:32;17.30;;;14.40;;
2650;SDS011;1335;48.180;16.342;2023-12-29T00:47:00;21.13;;;14.47;;
2650;SDS011;1335;48.180;16.342;2023-12-29T00:49:27;20.10;;;15.90;;
2650;SDS011;1335;48.180;16.342;2023-12-29T00:51:54;18.10;;;14.90;;
2650;SDS011;1335;48.180;16.342;2023-12-29T00:54:22;19.23;;;14.00;;
2650;SDS011;1335;48.180;16.342;2023-12-29T00:56:49;17.53;;;14.07;;
2650;SDS011;1335;48.180;16.342;2023-12-29T00:59:17;18.20;;;14.10;;
2650;SDS011;1335;48.180;16.342;2023-12-29T01:01:46;16.73;;;13.73;;
2650;SDS011;1335;48.180;16.342;2023-12-29T01:04:14;18.37;;;13.53;;
2650;SDS011;1335;48.180;16.342;2023-12-29T01:06:41;18.20;;;13.43;;
2650;SDS011;1335;48.180;16.342;2023-12-29T01:09:08;19.30;;;13.50;;
2650;SDS011;1335;48.180;16.342;2023-12-29T01:11:37;19.73;;;14.83;;
2650;SDS011;1335;48.180;16.342;2023-12-29T01:14:04;21.23;;;14.63;;
2650;SDS011;1335;48.180;16.342;2023-12-29T01:16:31;20.53;;;14.10;;
2650;SDS011;1335;48.180;16.342;2023-12-29T01:19:00;17.93;;;13.20;;
2650;SDS011;1335;48.180;16.342;2023-12-29T01:21:27;16.43;;;13.90;;
2650;SDS011;1335;48.180;16.342;2023-12-29T01:23:58;16.33;;;13.47;;
2650;SDS011;1335;48.180;16.342;2023-12-29T01:26:26;18.80;;;12.93;;
2650;SDS011;1335;48.180;16.342;2023-12-29T01:28:53;15.97;;;13.00;;
2650;SDS011;1335;48.180;16.342;2023-12-29T01:31:20;15.17;;;13.23;;
2650;SDS011;1335;48.180;16.342;2023-12-29T01:33:48;19.87;;;13.77;;
2650;SDS011;1335;48.180;16.342;2023-12-29T01:36:18;17.90;;;14.63;;
2650;SDS011;1335;48.180;16.342;2023-12-29T01:38:45;17.27;;;14.10;;
2650;SDS011;1335;48.180;16.342;2023-12-29T01:41:13;18.03;;;13.33;;
2650;SDS011;1335;48.180;16.342;2023-12-29T01:46:22;14.40;;;12.57;;
2650;SDS011;1335;48.180;16.342;2023-12-29T01:48:50;13.50;;;11.80;;
2650;SDS011;1335;48.180;16.342;2023-12-29T01:51:19;14.17;;;12.47;;
2650;SDS011;1335;48.180;16.342;2023-12-29T01:53:47;15.40;;;11.83;;
2650;SDS011;1335;48.180;16.342;2023-12-29T01:56:15;16.33;;;13.13;;
2650;SDS011;1335;48.180;16.342;2023-12-29T01:58:42;17.73;;;13.70;;
2650;SDS011;1335;48.180;16.342;2023-12-29T02:01:10;19.47;;;14.33;;
2650;SDS011;1335;48.180;16.342;2023-12-29T02:03:38;17.97;;;13.30;;
2650;SDS011;1335;48.180;16.342;2023-12-29T02:06:06;21.23;;;14.77;;
2650;SDS011;1335;48.180;16.342;2023-12-29T02:08:34;17.90;;;14.50;;
2650;SDS011;1335;48.180;16.342;2023-12-29T02:11:02;19.60;;;14.03;;
2650;SDS011;1335;48.180;16.342;2023-12-29T02:13:31;19.23;;;14.87;;
2650;SDS011;1335;48.180;16.342;2023-12-29T02:16:00;18.50;;;13.80;;
2650;SDS011;1335;48.180;16.342;2023-12-29T02:18:29;19.77;;;14.17;;
2650;SDS011;1335;48.180;16.342;2023-12-29T02:20:57;17.50;;;14.00;;
2650;SDS011;1335;48.180;16.342;2023-12-29T02:23:24;19.60;;;15.00;;
2650;SDS011;1335;48.180;16.342;2023-12-29T02:25:53;18.13;;;14.20;;
2650;SDS011;1335;48.180;16.342;2023-12-29T02:28:23;20.23;;;13.80;;
2650;SDS011;1335;48.180;16.342;2023-12-29T02:30:56;20.13;;;15.03;;
2650;SDS011;1335;48.180;16.342;2023-12-29T02:33:23;19.30;;;13.33;;
2650;SDS011;1335;48.180;16.342;2023-12-29T02:35:52;20.23;;;15.40;;
2650;SDS011;1335;48.180;16.342;2023-12-29T02:38:19;19.17;;;15.67;;
2650;SDS011;1335;48.180;16.342;2023-12-29T02:40:47;18.97;;;15.17;;
2650;SDS011;1335;48.180;16.342;2023-12-29T02:43:16;20.00;;;15.63;;
2650;SDS011;1335;48.180;16.342;2023-12-29T02:45:43;17.80;;;14.63;;
2650;SDS011;1335;48.180;16.342;2023-12-29T02:48:10;18.57;;;14.80;;
2650;SDS011;1335;48.180;16.342;2023-12-29T02:50:38;18.93;;;14.10;;
2650;SDS011;1335;48.180;16.342;2023-12-29T02:53:05;17.83;;;14.07;;
2650;SDS011;1335;48.180;16.342;2023-12-29T02:55:32;18.37;;;14.23;;
2650;SDS011;1335;48.180;16.342;2023-12-29T02:58:00;16.57;;;13.57;;
2650;SDS011;1335;48.180;16.342;2023-12-29T03:00:28;19.30;;;15.53;;
2650;SDS011;1335;48.180;16.342;2023-12-29T03:02:56;19.33;;;14.80;;
2650;SDS011;1335;48.180;16.342;2023-12-29T03:05:23;16.50;;;14.10;;
2650;SDS011;1335;48.180;16.342;2023-12-29T03:07:50;18.07;;;14.60;;
2650;SDS011;1335;48.180;16.342;2023-12-29T03:10:18;17.53;;;14.33;;
2650;SDS011;1335;48.180;16.342;2023-12-29T03:12:45;19.23;;;14.40;;
2650;SDS011;1335;48.180;16.342;2023-12-29T03:15:13;15.90;;;13.43;;
2650;SDS011;1335;48.180;16.342;2023-12-29T03:17:42;16.90;;;14.50;;
2650;SDS011;1335;48.180;16.342;2023-12-29T03:20:09;17.43;;;14.17;;
2650;SDS011;1335;48.180;16.342;2023-12-29T03:22:37;17.43;;;13.93;;
2650;SDS011;1335;48.180;16.342;2023-12-29T03:25:04;17.87;;;13.47;;
2650;SDS011;1335;48.180;16.342;2023-12-29T03:27:32;18.30;;;14.77;;
2650;SDS011;1335;48.180;16.342;2023-12-29T03:29:59;17.90;;;14.13;;
2650;SDS011;1335;48.180;16.342;2023-12-29T03:32:26;14.50;;;12.37;;
2650;SDS011;1335;48.180;16.342;2023-12-29T03:34:55;15.80;;;14.10;;
2650;SDS011;1335;48.180;16.342;2023-12-29T03:37:22;16.63;;;13.30;;
2650;SDS011;1335;48.180;16.342;2023-12-29T03:39:50;19.00;;;13.20;;
2650;SDS011;1335;48.180;16.342;2023-12-29T03:42:17;14.07;;;12.00;;
2650;SDS011;1335;48.180;16.342;2023-12-29T03:44:44;15.10;;;13.30;;
2650;SDS011;1335;48.180;16.342;2023-12-29T03:47:12;13.63;;;12.20;;
2650;SDS011;1335;48.180;16.342;2023-12-29T03:49:39;18.20;;;13.33;;
2650;SDS011;1335;48.180;16.342;2023-12-29T03:52:08;14.00;;;12.60;;
2650;SDS011;1335;48.180;16.342;2023-12-29T03:54:35;14.30;;;12.30;;
2650;SDS011;1335;48.180;16.342;2023-12-29T03:57:02;12.77;;;11.23;;
2650;SDS011;1335;48.180;16.342;2023-12-29T03:59:30;14.60;;;11.93;;
2650;SDS011;1335;48.180;16.342;2023-12-29T04:01:57;12.30;;;10.77;;
2650;SDS011;1335;48.180;16.342;2023-12-29T04:04:24;11.37;;;9.17;;
2650;SDS011;1335;48.180;16.342;2023-12-29T04:06:52;13.70;;;10.20;;
2650;SDS011;1335;48.180;16.342;2023-12-29T04:09:20;11.70;;;9.20;;
2650;SDS011;1335;48.180;16.342;2023-12-29T04:11:48;10.50;;;9.13;;
2650;SDS011;1335;48.180;16.342;2023-12-29T04:14:15;10.40;;;9.03;;
2650;SDS011;1335;48.180;16.342;2023-12-29T04:16:42;8.73;;;7.83;;
2650;SDS011;1335;48.180;16.342;2023-12-29T04:19:10;13.30;;;10.20;;
2650;SDS011;1335;48.180;16.342;2023-12-29T04:21:37;10.23;;;8.37;;
2650;SDS011;1335;48.180;16.342;2023-12-29T04:24:04;11.37;;;10.17;;
2650;SDS011;1335;48.180;16.342;2023-12-29T04:26:36;12.87;;;10.10;;
2650;SDS011;1335;48.180;16.342;2023-12-29T04:29:03;10.97;;;9.80;;
2650;SDS011;1335;48.180;16.342;2023-12-29T04:31:31;12.03;;;10.60;;
2650;SDS011;1335;48.180;16.342;2023-12-29T04:33:58;10.50;;;8.83;;
2650;SDS011;1335;48.180;16.342;2023-12-29T04:36:25;10.00;;;9.00;;
2650;SDS011;1335;48.180;16.342;2023-12-29T04:38:53;10.93;;;7.70;;
2650;SDS011;1335;48.180;16.342;2023-12-29T04:41:20;8.23;;;7.43;;
2650;SDS011;1335;48.180;16.342;2023-12-29T04:43:49;8.43;;;6.90;;
2650;SDS011;1335;48.180;16.342;2023-12-29T04:46:16;7.90;;;5.87;;
2650;SDS011;1335;48.180;16.342;2023-12-29T04:48:44;7.03;;;5.33;;
2650;SDS011;1335;48.180;16.342;2023-12-29T04:51:11;5.50;;;4.77;;
2650;SDS011;1335;48.180;16.342;2023-12-29T04:53:38;5.77;;;5.27;;
2650;SDS011;1335;48.180;16.342;2023-12-29T04:56:05;6.50;;;5.07;;
2650;SDS011;1335;48.180;16.342;2023-12-29T04:58:33;7.20;;;5.10;;
2650;SDS011;1335;48.180;16.342;2023-12-29T05:01:02;5.20;;;4.53;;
2650;SDS011;1335;48.180;16.342;2023-12-29T05:03:29;5.20;;;4.70;;
2650;SDS011;1335;48.180;16.342;2023-12-29T05:05:56;5.13;;;4.63;;
2650;SDS011;1335;48.180;16.342;2023-12-29T05:08:23;3.80;;;3.40;;
2650;SDS011;1335;48.180;16.342;2023-12-29T05:10:52;4.90;;;3.80;;
2650;SDS011;1335;48.180;16.342;2023-12-29T05:13:20;5.87;;;4.43;;
2650;SDS011;1335;48.180;16.342;2023-12-29T05:15:47;4.77;;;3.90;;
2650;SDS011;1335;48.180;16.342;2023-12-29T05:18:16;7.23;;;4.20;;
2650;SDS011;1335;48.180;16.342;2023-12-29T05:20:43;5.77;;;5.17;;
2650;SDS011;1335;48.180;16.342;2023-12-29T05:23:11;4.10;;;3.40;;
2650;SDS011;1335;48.180;16.342;2023-12-29T05:25:38;5.20;;;3.83;;
2650;SDS011;1335;48.180;16.342;2023-12-29T05:28:06;4.20;;;3.37;;
2650;SDS011;1335;48.180;16.342;2023-12-29T05:30:33;3.37;;;3.07;;
2650;SDS011;1335;48.180;16.342;2023-12-29T05:33:00;3.20;;;2.87;;
2650;SDS011;1335;48.180;16.342;2023-12-29T05:35:29;3.90;;;3.20;;
2650;SDS011;1335;48.180;16.342;2023-12-29T05:37:56;2.67;;;2.17;;
2650;SDS011;1335;48.180;16.342;2023-12-29T05:40:23;3.60;;;2.87;;
2650;SDS011;1335;48.180;16.342;2023-12-29T05:42:51;2.80;;;2.50;;
2650;SDS011;1335;48.180;16.342;2023-12-29T05:45:18;2.90;;;2.70;;
2650;SDS011;1335;48.180;16.342;2023-12-29T05:47:45;3.73;;;2.80;;
2650;SDS011;1335;48.180;16.342;2023-12-29T05:50:13;2.13;;;2.00;;
2650;SDS011;1335;48.180;16.342;2023-12-29T05:52:41;2.70;;;2.30;;
2650;SDS011;1335;48.180;16.342;2023-12-29T05:55:09;3.63;;;3.27;;
2650;SDS011;1335;48.180;16.342;2023-12-29T05:57:36;3.60;;;3.30;;
2650;SDS011;1335;48.180;16.342;2023-12-29T06:00:03;4.20;;;3.80;;
2650;SDS011;1335;48.180;16.342;2023-12-29T06:02:31;6.20;;;5.03;;
2650;SDS011;1335;48.180;16.342;2023-12-29T06:04:58;7.80;;;6.87;;
2650;SDS011;1335;48.180;16.342;2023-12-29T06:07:25;8.97;;;8.07;;
2650;SDS011;1335;48.180;16.342;2023-12-29T06:09:54;12.23;;;8.40;;
2650;SDS011;1335;48.180;16.342;2023-12-29T06:12:21;13.40;;;9.80;;
2650;SDS011;1335;48.180;16.342;2023-12-29T06:14:49;11.00;;;9.30;;
2650;SDS011;1335;48.180;16.342;2023-12-29T06:17:16;13.27;;;10.10;;
2650;SDS011;1335;48.180;16.342;2023-12-29T06:19:43;11.50;;;10.23;;
2650;SDS011;1335;48.180;16.342;2023-12-29T06:22:11;12.47;;;10.63;;
2650;SDS011;1335;48.180;16.342;2023-12-29T06:24:39;11.27;;;9.97;;
2650;SDS011;1335;48.180;16.342;2023-12-29T06:27:08;12.23;;;9.60;;
2650;SDS011;1335;48.180;16.342;2023-12-29T06:29:35;11.13;;;9.43;;
2650;SDS011;1335;48.180;16.342;2023-12-29T06:32:03;11.47;;;9.00;;
2650;SDS011;1335;48.180;16.342;2023-12-29T06:34:31;12.60;;;8.97;;
2650;SDS011;1335;48.180;16.342;2023-12-29T06:36:58;10.70;;;8.17;;
2650;SDS011;1335;48.180;16.342;2023-12-29T06:39:25;10.47;;;8.83;;
2650;SDS011;1335;48.180;16.342;2023-12-29T06:41:53;11.67;;;10.37;;
2650;SDS011;1335;48.180;16.342;2023-12-29T06:44:21;10.63;;;8.83;;
2650;SDS011;1335;48.180;16.342;2023-12-29T06:46:49;10.60;;;8.90;;
2650;SDS011;1335;48.180;16.342;2023-12-29T06:49:16;11.43;;;10.10;;
2650;SDS011;1335;48.180;16.342;2023-12-29T06:51:43;14.47;;;10.23;;
2650;SDS011;1335;48.180;16.342;2023-12-29T06:54:11;12.20;;;9.80;;
2650;SDS011;1335;48.180;16.342;2023-12-29T06:56:38;9.43;;;8.43;;
2650;SDS011;1335;48.180;16.342;2023-12-29T06:59:06;11.20;;;8.70;;
2650;SDS011;1335;48.180;16.342;2023-12-29T07:01:34;9.67;;;7.97;;
2650;SDS011;1335;48.180;16.342;2023-12-29T07:04:06;10.80;;;8.43;;
2650;SDS011;1335;48.180;16.342;2023-12-29T07:06:35;8.17;;;7.10;;
2650;SDS011;1335;48.180;16.342;2023-12-29T07:09:02;8.90;;;7.60;;
2650;SDS011;1335;48.180;16.342;2023-12-29T07:11:29;9.17;;;8.23;;
2650;SDS011;1335;48.180;16.342;2023-12-29T07:13:57;10.10;;;7.77;;
2650;SDS011;1335;48.180;16.342;2023-12-29T07:16:24;11.97;;;8.63;;
2650;SDS011;1335;48.180;16.342;2023-12-29T07:18:53;11.87;;;8.80;;
2650;SDS011;1335;48.180;16.342;2023-12-29T07:21:20;11.30;;;8.10;;
2650;SDS011;1335;48.180;16.342;2023-12-29T07:23:48;9.33;;;8.40;;
2650;SDS011;1335;48.180;16.342;2023-12-29T07:26:15;11.80;;;8.70;;
2650;SDS011;1335;48.180;16.342;2023-12-29T07:28:42;27.20;;;15.53;;
2650;SDS011;1335;48.180;16.342;2023-12-29T07:31:09;11.80;;;9.30;;
2650;SDS011;1335;48.180;16.342;2023-12-29T07:33:37;11.30;;;9.20;;
2650;SDS011;1335;48.180;16.342;2023-12-29T07:36:06;10.80;;;9.03;;
2650;SDS011;1335;48.180;16.342;2023-12-29T07:38:34;9.57;;;7.70;;
2650;SDS011;1335;48.180;16.342;2023-12-29T07:41:01;10.70;;;8.20;;
2650;SDS011;1335;48.180;16.342;2023-12-29T07:43:28;11.20;;;8.80;;
2650;SDS011;1335;48.180;16.342;2023-12-29T07:45:56;10.60;;;8.63;;
2650;SDS011;1335;48.180;16.342;2023-12-29T07:48:23;10.87;;;8.73;;
2650;SDS011;1335;48.180;16.342;2023-12-29T07:50:50;12.63;;;9.37;;
2650;SDS011;1335;48.180;16.342;2023-12-29T07:53:19;9.93;;;8.93;;
2650;SDS011;1335;48.180;16.342;2023-12-29T07:55:46;12.93;;;8.67;;
2650;SDS011;1335;48.180;16.342;2023-12-29T07:58:15;12.97;;;8.33;;
2650;SDS011;1335;48.180;16.342;2023-12-29T08:00:42;9.90;;;7.83;;
2650;SDS011;1335;48.180;16.342;2023-12-29T08:03:09;12.87;;;8.67;;
2650;SDS011;1335;48.180;16.342;2023-12-29T08:05:37;11.20;;;8.33;;
2650;SDS011;1335;48.180;16.342;2023-12-29T08:08:05;14.20;;;9.10;;
2650;SDS011;1335;48.180;16.342;2023-12-29T08:10:33;11.90;;;8.10;;
2650;SDS011;1335;48.180;16.342;2023-12-29T08:13:01;14.83;;;9.77;;
2650;SDS011;1335;48.180;16.342;2023-12-29T08:15:29;15.60;;;10.90;;
2650;SDS011;1335;48.180;16.342;2023-12-29T08:17:56;14.40;;;9.00;;
2650;SDS011;1335;48.180;16.342;2023-12-29T08:20:23;12.40;;;8.97;;
2650;SDS011;1335;48.180;16.342;2023-12-29T08:22:50;12.13;;;9.43;;
2650;SDS011;1335;48.180;16.342;2023-12-29T08:25:18;10.90;;;9.33;;
2650;SDS011;1335;48.180;16.342;2023-12-29T08:27:46;10.40;;;8.60;;
2650;SDS011;1335;48.180;16.342;2023-12-29T08:30:14;11.07;;;7.57;;
2650;SDS011;1335;48.180;16.342;2023-12-29T08:32:41;13.13;;;8.13;;
2650;SDS011;1335;48.180;16.342;2023-12-29T08:35:08;8.57;;;7.00;;
2650;SDS011;1335;48.180;16.342;2023-12-29T08:37:36;7.70;;;6.90;;
2650;SDS011;1335;48.180;16.342;2023-12-29T08:40:03;7.67;;;6.87;;
2650;SDS011;1335;48.180;16.342;2023-12-29T08:42:31;10.80;;;6.20;;
2650;SDS011;1335;48.180;16.342;2023-12-29T08:45:00;9.07;;;6.43;;
2650;SDS011;1335;48.180;16.342;2023-12-29T08:47:28;10.90;;;8.40;;
2650;SDS011;1335;48.180;16.342;2023-12-29T08:49:55;8.97;;;8.03;;
2650;SDS011;1335;48.180;16.342;2023-12-29T08:52:23;7.50;;;6.80;;
2650;SDS011;1335;48.180;16.342;2023-12-29T08:54:50;8.73;;;6.87;;
2650;SDS011;1335;48.180;16.342;2023-12-29T08:57:17;9.83;;;6.53;;
2650;SDS011;1335;48.180;16.342;2023-12-29T08:59:45;8.87;;;7.57;;
2650;SDS011;1335;48.180;16.342;2023-12-29T09:02:14;7.63;;;6.50;;
2650;SDS011;1335;48.180;16.342;2023-12-29T09:04:42;14.83;;;6.87;;
2650;SDS011;1335;48.180;16.342;2023-12-29T09:07:09;8.63;;;6.60;;
2650;SDS011;1335;48.180;16.342;2023-12-29T09:09:36;7.57;;;6.77;;
2650;SDS011;1335;48.180;16.342;2023-12-29T09:12:04;6.43;;;5.80;;
2650;SDS011;1335;48.180;16.342;2023-12-29T09:14:32;9.03;;;6.70;;
2650;SDS011;1335;48.180;16.342;2023-12-29T09:16:59;6.33;;;5.73;;
2650;SDS011;1335;48.180;16.342;2023-12-29T09:19:28;9.23;;;6.73;;
2650;SDS011;1335;48.180;16.342;2023-12-29T09:21:55;7.60;;;6.60;;
2650;SDS011;1335;48.180;16.342;2023-12-29T09:24:23;7.70;;;6.73;;
2650;SDS011;1335;48.180;16.342;2023-12-29T09:26:50;5.80;;;5.20;;
2650;SDS011;1335;48.180;16.342;2023-12-29T09:29:17;10.03;;;6.77;;
2650;SDS011;1335;48.180;16.342;2023-12-29T09:31:45;6.30;;;5.70;;
2650;SDS011;1335;48.180;16.342;2023-12-29T09:34:12;6.40;;;5.57;;
2650;SDS011;1335;48.180;16.342;2023-12-29T09:36:41;6.60;;;6.00;;
2650;SDS011;1335;48.180;16.342;2023-12-29T09:39:08;7.00;;;6.03;;
2650;SDS011;1335;48.180;16.342;2023-12-29T09:41:35;8.67;;;6.07;;
2650;SDS011;1335;48.180;16.342;2023-12-29T09:44:04;7.10;;;5.60;;
2650;SDS011;1335;48.180;16.342;2023-12-29T09:46:34;12.77;;;7.87;;
2650;SDS011;1335;48.180;16.342;2023-12-29T09:49:02;9.37;;;7.73;;
2650;SDS011;1335;48.180;16.342;2023-12-29T09:51:30;10.23;;;6.53;;
2650;SDS011;1335;48.180;16.342;2023-12-29T09:53:59;7.33;;;6.40;;
2650;SDS011;1335;48.180;16.342;2023-12-29T09:56:27;8.90;;;6.90;;
2650;SDS011;1335;48.180;16.342;2023-12-29T09:58:54;7.87;;;7.07;;
2650;SDS011;1335;48.180;16.342;2023-12-29T10:01:23;9.50;;;7.17;;
2650;SDS011;1335;48.180;16.342;2023-12-29T10:03:52;8.53;;;7.50;;
2650;SDS011;1335;48.180;16.342;2023-12-29T10:06:20;9.57;;;7.60;;
2650;SDS011;1335;48.180;16.342;2023-12-29T10:08:49;10.30;;;6.83;;
2650;SDS011;1335;48.180;16.342;2023-12-29T10:11:19;12.20;;;7.27;;
2650;SDS011;1335;48.180;16.342;2023-12-29T10:13:49;9.83;;;7.80;;
2650;SDS011;1335;48.180;16.342;2023-12-29T10:16:18;7.47;;;6.27;;
2650;SDS011;1335;48.180;16.342;2023-12-29T10:18:53;6.87;;;5.17;;
2650;SDS011;1335;48.180;16.342;2023-12-29T10:21:27;9.63;;;7.00;;
2650;SDS011;1335;48.180;16.342;2023-12-29T10:23:57;6.77;;;5.20;;
2650;SDS011;1335;48.180;16.342;2023-12-29T10:26:26;4.37;;;4.00;;
2650;SDS011;1335;48.180;16.342;2023-12-29T10:28:54;4.10;;;3.57;;
2650;SDS011;1335;48.180;16.342;2023-12-29T10:31:22;6.80;;;4.37;;
2650;SDS011;1335;48.180;16.342;2023-12-29T10:33:51;5.80;;;4.60;;
2650;SDS011;1335;48.180;16.342;2023-12-29T10:36:18;5.47;;;4.93;;
2650;SDS011;1335;48.180;16.342;2023-12-29T10:38:45;6.63;;;4.70;;
2650;SDS011;1335;48.180;16.342;2023-12-29T10:41:15;4.33;;;3.83;;
2650;SDS011;1335;48.180;16.342;2023-12-29T10:43:44;4.07;;;3.47;;
2650;SDS011;1335;48.180;16.342;2023-12-29T10:46:17;4.27;;;3.87;;
2650;SDS011;1335;48.180;16.342;2023-12-29T10:48:44;5.30;;;3.40;;
2650;SDS011;1335;48.180;16.342;2023-12-29T10:51:12;5.40;;;3.70;;
2650;SDS011;1335;48.180;16.342;2023-12-29T10:53:39;5.43;;;3.13;;
2650;SDS011;1335;48.180;16.342;2023-12-29T10:56:10;2.53;;;2.23;;
2650;SDS011;1335;48.180;16.342;2023-12-29T10:58:46;2.10;;;1.90;;
2650;SDS011;1335;48.180;16.342;2023-12-29T11:01:24;4.87;;;2.77;;
2650;SDS011;1335;48.180;16.342;2023-12-29T11:03:57;2.20;;;1.40;;
2650;SDS011;1335;48.180;16.342;2023-12-29T11:06:25;2.57;;;1.30;;
2650;SDS011;1335;48.180;16.342;2023-12-29T11:08:53;1.23;;;1.13;;
2650;SDS011;1335;48.180;16.342;2023-12-29T11:11:20;0.87;;;0.87;;
2650;SDS011;1335;48.180;16.342;2023-12-29T11:13:49;3.43;;;1.30;;
2650;SDS011;1335;48.180;16.342;2023-12-29T11:16:17;0.80;;;0.80;;
2650;SDS011;1335;48.180;16.342;2023-12-29T11:18:47;2.40;;;0.80;;
2650;SDS011;1335;48.180;16.342;2023-12-29T11:21:14;1.13;;;0.93;;
2650;SDS011;1335;48.180;16.342;2023-12-29T11:23:42;2.20;;;2.10;;
2650;SDS011;1335;48.180;16.342;2023-12-29T11:26:09;1.17;;;0.90;;
2650;SDS011;1335;48.180;16.342;2023-12-29T11:28:37;0.90;;;0.70;;
2650;SDS011;1335;48.180;16.342;2023-12-29T11:31:06;0.97;;;0.97;;
2650;SDS011;1335;48.180;16.342;2023-12-29T11:33:35;0.70;;;0.70;;
2650;SDS011;1335;48.180;16.342;2023-12-29T11:36:07;0.70;;;0.70;;
2650;SDS011;1335;48.180;16.342;2023-12-29T11:38:47;1.87;;;1.07;;
2650;SDS011;1335;48.180;16.342;2023-12-29T11:41:17;1.80;;;1.10;;
2650;SDS011;1335;48.180;16.342;2023-12-29T11:43:55;1.23;;;0.77;;
2650;SDS011;1335;48.180;16.342;2023-12-29T11:46:34;0.73;;;0.60;;
2650;SDS011;1335;48.180;16.342;2023-12-29T11:49:01;0.60;;;0.60;;
2650;SDS011;1335;48.180;16.342;2023-12-29T11:51:30;0.93;;;0.83;;
2650;SDS011;1335;48.180;16.342;2023-12-29T11:53:58;2.47;;;0.87;;
2650;SDS011;1335;48.180;16.342;2023-12-29T11:56:30;0.87;;;0.70;;
2650;SDS011;1335;48.180;16.342;2023-12-29T11:59:11;2.00;;;0.97;;
2650;SDS011;1335;48.180;16.342;2023-12-29T12:01:40;2.80;;;0.77;;
2650;SDS011;1335;48.180;16.342;2023-12-29T12:06:49;1.40;;;0.87;;
2650;SDS011;1335;48.180;16.342;2023-12-29T12:09:17;1.57;;;0.80;;
2650;SDS011;1335;48.180;16.342;2023-12-29T12:11:50;0.97;;;0.97;;
2650;SDS011;1335;48.180;16.342;2023-12-29T12:17:00;1.00;;;0.90;;
2650;SDS011;1335;48.180;16.342;2023-12-29T12:19:28;1.00;;;1.00;;
2650;SDS011;1335;48.180;16.342;2023-12-29T12:22:00;0.80;;;0.80;;
2650;SDS011;1335;48.180;16.342;2023-12-29T12:24:28;1.30;;;1.20;;
2650;SDS011;1335;48.180;16.342;2023-12-29T12:26:56;0.87;;;0.87;;
2650;SDS011;1335;48.180;16.342;2023-12-29T12:29:24;0.90;;;0.90;;
2650;SDS011;1335;48.180;16.342;2023-12-29T12:31:52;1.40;;;1.30;;
2650;SDS011;1335;48.180;16.342;2023-12-29T12:34:21;1.73;;;1.07;;
2650;SDS011;1335;48.180;16.342;2023-12-29T12:36:48;1.33;;;1.20;;
2650;SDS011;1335;48.180;16.342;2023-12-29T12:39:16;1.30;;;1.20;;
2650;SDS011;1335;48.180;16.342;2023-12-29T12:41:44;1.40;;;0.93;;
2650;SDS011;1335;48.180;16.342;2023-12-29T12:44:11;0.77;;;0.77;;
2650;SDS011;1335;48.180;16.342;2023-12-29T12:46:40;1.10;;;0.90;;
2650;SDS011;1335;48.180;16.342;2023-12-29T12:49:08;1.60;;;1.27;;
2650;SDS011;1335;48.180;16.342;2023-12-29T12:51:37;1.43;;;1.00;;
2650;SDS011;1335;48.180;16.342;2023-12-29T12:54:04;1.40;;;1.20;;
2650;SDS011;1335;48.180;16.342;2023-12-29T12:56:32;3.53;;;1.03;;
2650;SDS011;1335;48.180;16.342;2023-12-29T12:59:00;1.23;;;1.13;;
2650;SDS011;1335;48.180;16.342;2023-12-29T13:01:28;1.30;;;0.83;;
2650;SDS011;1335;48.180;16.342;2023-12-29T13:03:56;0.90;;;0.90;;
2650;SDS011;1335;48.180;16.342;2023-12-29T13:06:25;1.80;;;0.73;;
2650;SDS011;1335;48.180;16.342;2023-12-29T13:08:53;1.70;;;1.17;;
2650;SDS011;1335;48.180;16.342;2023-12-29T13:11:21;0.67;;;0.63;;
2650;SDS011;1335;48.180;16.342;2023-12-29T13:13:51;0.90;;;0.80;;
2650;SDS011;1335;48.180;16.342;2023-12-29T13:16:28;1.63;;;0.90;;
2650;SDS011;1335;48.180;16.342;2023-12-29T13:18:56;1.40;;;0.90;;
2650;SDS011;1335;48.180;16.342;2023-12-29T13:21:23;1.37;;;1.27;;
2650;SDS011;1335;48.180;16.342;2023-12-29T13:23:51;2.37;;;1.30;;
2650;SDS011;1335;48.180;16.342;2023-12-29T13:26:22;1.73;;;1.43;;
2650;SDS011;1335;48.180;16.342;2023-12-29T13:28:51;1.37;;;1.00;;
2650;SDS011;1335;48.180;16.342;2023-12-29T13:31:19;1.43;;;1.33;;
2650;SDS011;1335;48.180;16.342;2023-12-29T13:33:48;1.47;;;1.30;;
2650;SDS011;1335;48.180;16.342;2023-12-29T13:36:21;1.57;;;1.40;;
2650;SDS011;1335;48.180;16.342;2023-12-29T13:38:50;2.60;;;2.17;;
2650;SDS011;1335;48.180;16.342;2023-12-29T13:41:21;1.20;;;1.10;;
2650;SDS011;1335;48.180;16.342;2023-12-29T13:43:49;2.03;;;1.20;;
2650;SDS011;1335;48.180;16.342;2023-12-29T13:46:17;3.17;;;1.77;;
2650;SDS011;1335;48.180;16.342;2023-12-29T13:48:45;1.10;;;1.10;;
2650;SDS011;1335;48.180;16.342;2023-12-29T13:51:16;3.30;;;2.83;;
2650;SDS011;1335;48.180;16.342;2023-12-29T13:53:43;4.77;;;3.50;;
2650;SDS011;1335;48.180;16.342;2023-12-29T13:56:10;2.47;;;2.27;;
2650;SDS011;1335;48.180;16.342;2023-12-29T13:58:39;3.23;;;2.73;;
2650;SDS011;1335;48.180;16.342;2023-12-29T14:01:07;4.50;;;3.13;;
2650;SDS011;1335;48.180;16.342;2023-12-29T14:03:37;3.63;;;3.10;;
2650;SDS011;1335;48.180;16.342;2023-12-29T14:06:08;4.73;;;3.37;;
2650;SDS011;1335;48.180;16.342;2023-12-29T14:08:39;4.17;;;3.60;;
2650;SDS011;1335;48.180;16.342;2023-12-29T14:11:07;5.10;;;3.20;;
2650;SDS011;1335;48.180;16.342;2023-12-29T14:13:34;5.13;;;3.33;;
2650;SDS011;1335;48.180;16.342;2023-12-29T14:16:04;4.60;;;3.23;;
2650;SDS011;1335;48.180;16.342;2023-12-29T14:18:42;3.97;;;3.57;;
2650;SDS011;1335;48.180;16.342;2023-12-29T14:21:22;4.13;;;3.10;;
2650;SDS011;1335;48.180;16.342;2023-12-29T14:26:53;8.30;;;4.10;;
2650;SDS011;1335;48.180;16.342;2023-12-29T14:29:21;5.50;;;4.13;;
2650;SDS011;1335;48.180;16.342;2023-12-29T14:31:50;5.83;;;4.00;;
2650;SDS011;1335;48.180;16.342;2023-12-29T14:34:17;5.40;;;3.40;;
2650;SDS011;1335;48.180;16.342;2023-12-29T14:36:45;6.43;;;3.57;;
2650;SDS011;1335;48.180;16.342;2023-12-29T14:39:12;2.80;;;2.17;;
2650;SDS011;1335;48.180;16.342;2023-12-29T14:41:40;1.67;;;1.47;;
2650;SDS011;1335;48.180;16.342;2023-12-29T14:44:07;2.97;;;1.97;;
2650;SDS011;1335;48.180;16.342;2023-12-29T14:46:36;1.70;;;1.60;;
2650;SDS011;1335;48.180;16.342;2023-12-29T14:49:05;1.93;;;1.70;;
2650;SDS011;1335;48.180;16.342;2023-12-29T14:51:32;1.27;;;1.17;;
2650;SDS011;1335;48.180;16.342;2023-12-29T14:53:59;2.20;;;1.00;;
2650;SDS011;1335;48.180;16.342;2023-12-29T14:56:28;1.63;;;1.00;;
2650;SDS011;1335;48.180;16.342;2023-12-29T14:58:56;2.20;;;1.17;;
2650;SDS011;1335;48.180;16.342;2023-12-29T15:01:24;4.03;;;1.30;;
2650;SDS011;1335;48.180;16.342;2023-12-29T15:03:52;1.30;;;1.07;;
2650;SDS011;1335;48.180;16.342;2023-12-29T15:06:20;1.50;;;1.30;;